createdAt,value
2018-11-29T00:00:26.103Z,17.65
2018-11-29T00:02:54.319Z,15.58
2018-11-29T00:05:22.547Z,15.05
2018-11-29T00:07:50.821Z,17.50
2018-11-29T00:10:19.052Z,16.27
2018-11-29T00:12:47.270Z,16.73
2018-11-29T00:15:16.035Z,16.32
2018-11-29T00:17:44.311Z,16.50
2018-11-29T00:20:18.883Z,17.20
2018-11-29T00:22:48.147Z,16.80
2018-11-29T00:25:18.062Z,15.48
2018-11-29T00:27:46.611Z,18.10
2018-11-29T00:30:17.647Z,15.75
2018-11-29T00:32:45.915Z,16.60
2018-11-29T00:35:14.979Z,15.00
2018-11-29T00:37:43.344Z,17.70
2018-11-29T00:40:15.596Z,15.45
2018-11-29T00:42:43.890Z,16.25
2018-11-29T00:45:14.710Z,15.00
2018-11-29T00:47:43.487Z,15.63
2018-11-29T00:50:12.611Z,15.93
2018-11-29T00:52:41.818Z,15.00
2018-11-29T00:55:12.099Z,15.00
2018-11-29T00:57:40.484Z,16.25
2018-11-29T01:00:12.711Z,16.50
2018-11-29T01:02:40.964Z,16.85
2018-11-29T01:05:09.212Z,17.17
2018-11-29T01:07:37.463Z,14.83
2018-11-29T01:10:12.727Z,14.87
2018-11-29T01:12:41.262Z,15.85
2018-11-29T01:15:13.483Z,16.42
2018-11-29T01:17:41.763Z,15.80
2018-11-29T01:20:13.908Z,14.95
2018-11-29T01:22:42.172Z,15.65
2018-11-29T01:25:11.294Z,16.02
2018-11-29T01:27:39.622Z,15.50
2018-11-29T01:30:10.813Z,14.15
2018-11-29T01:32:39.027Z,15.63
2018-11-29T01:35:08.271Z,15.75
2018-11-29T01:37:36.512Z,15.28
2018-11-29T01:40:06.352Z,14.58
2018-11-29T01:42:34.559Z,15.70
2018-11-29T01:45:02.796Z,15.43
2018-11-29T01:47:31.024Z,13.58
2018-11-29T01:49:59.243Z,14.93
2018-11-29T01:52:27.463Z,14.15
2018-11-29T01:54:55.677Z,15.48
2018-11-29T01:57:23.852Z,15.03
2018-11-29T01:59:52.059Z,14.58
2018-11-29T02:02:20.279Z,13.58
2018-11-29T02:04:48.460Z,14.98
2018-11-29T02:07:16.684Z,14.28
2018-11-29T02:09:44.904Z,12.18
2018-11-29T02:12:13.101Z,14.47
2018-11-29T02:14:41.319Z,15.20
2018-11-29T02:17:09.531Z,14.45
2018-11-29T02:19:37.771Z,14.03
2018-11-29T02:22:06.080Z,15.38
2018-11-29T02:24:34.295Z,14.63
2018-11-29T02:27:02.478Z,14.13
2018-11-29T02:29:30.699Z,14.35
2018-11-29T02:31:58.916Z,15.58
2018-11-29T02:34:27.096Z,14.60
2018-11-29T02:36:55.303Z,12.88
2018-11-29T02:39:23.569Z,14.07
2018-11-29T02:41:51.756Z,14.78
2018-11-29T02:44:20.111Z,13.83
2018-11-29T02:46:48.315Z,13.58
2018-11-29T02:49:16.477Z,12.58
2018-11-29T02:51:44.679Z,12.70
2018-11-29T02:54:12.875Z,14.20
2018-11-29T02:56:41.257Z,14.35
2018-11-29T02:59:09.469Z,14.73
2018-11-29T03:01:37.698Z,13.30
2018-11-29T03:04:06.069Z,14.18
2018-11-29T03:06:34.307Z,13.55
2018-11-29T03:09:02.634Z,13.50
2018-11-29T03:11:30.811Z,14.00
2018-11-29T03:13:59.011Z,14.43
2018-11-29T03:16:27.220Z,13.10
2018-11-29T03:18:55.416Z,14.07
2018-11-29T03:21:23.659Z,13.93
2018-11-29T03:23:51.863Z,13.60
2018-11-29T03:26:20.039Z,14.60
2018-11-29T03:28:48.275Z,15.20
2018-11-29T03:31:16.530Z,14.23
2018-11-29T03:33:44.727Z,15.13
2018-11-29T03:36:12.965Z,14.35
2018-11-29T03:38:44.084Z,14.80
2018-11-29T03:41:12.291Z,13.05
2018-11-29T03:43:40.750Z,14.78
2018-11-29T03:46:08.928Z,14.10
2018-11-29T03:48:37.155Z,13.90
2018-11-29T03:51:05.692Z,12.18
2018-11-29T03:53:33.864Z,12.93
2018-11-29T03:56:02.103Z,15.55
2018-11-29T03:58:30.387Z,13.53
2018-11-29T04:00:58.575Z,14.60
2018-11-29T04:03:26.783Z,15.18
2018-11-29T04:05:54.983Z,15.35
2018-11-29T04:08:23.146Z,13.18
2018-11-29T04:10:51.368Z,14.03
2018-11-29T04:13:19.600Z,14.75
2018-11-29T04:15:47.775Z,14.50
2018-11-29T04:18:16.000Z,13.00
2018-11-29T04:20:44.207Z,14.18
2018-11-29T04:23:12.397Z,13.48
2018-11-29T04:25:40.603Z,15.10
2018-11-29T04:28:08.804Z,14.60
2018-11-29T04:30:36.980Z,14.07
2018-11-29T04:33:05.249Z,13.35
2018-11-29T04:35:33.467Z,14.20
2018-11-29T04:38:01.695Z,15.20
2018-11-29T04:40:29.933Z,14.83
2018-11-29T04:42:58.195Z,14.38
2018-11-29T04:45:36.227Z,12.50
2018-11-29T04:48:09.939Z,14.20
2018-11-29T04:50:33.214Z,12.73
2018-11-29T04:53:01.444Z,13.55
2018-11-29T04:55:29.653Z,13.05
2018-11-29T04:57:57.831Z,14.25
2018-11-29T05:00:26.040Z,12.18
2018-11-29T05:02:54.524Z,13.43
2018-11-29T05:05:22.890Z,12.75
2018-11-29T05:07:51.126Z,14.90
2018-11-29T05:10:19.324Z,14.28
2018-11-29T05:12:47.630Z,13.43
2018-11-29T05:15:15.903Z,14.05
2018-11-29T05:17:44.116Z,14.15
2018-11-29T05:20:12.320Z,13.53
2018-11-29T05:22:40.561Z,13.78
2018-11-29T05:25:09.050Z,14.05
2018-11-29T05:27:37.317Z,14.05
2018-11-29T05:30:09.488Z,13.80
2018-11-29T05:32:37.715Z,13.03
2018-11-29T05:35:07.827Z,13.55
2018-11-29T05:37:36.083Z,12.82
2018-11-29T05:40:04.740Z,12.75
2018-11-29T05:42:32.963Z,13.72
2018-11-29T05:45:01.590Z,12.53
2018-11-29T05:47:29.880Z,12.40
2018-11-29T05:49:58.160Z,13.93
2018-11-29T05:52:26.371Z,12.23
2018-11-29T05:54:54.951Z,13.98
2018-11-29T05:57:23.203Z,12.13
2018-11-29T05:59:51.436Z,11.68
2018-11-29T06:02:19.646Z,12.70
2018-11-29T06:04:47.892Z,11.63
2018-11-29T06:07:16.200Z,10.23
2018-11-29T06:09:44.420Z,11.90
2018-11-29T06:12:12.744Z,11.68
2018-11-29T06:14:41.123Z,10.40
2018-11-29T06:17:09.374Z,12.18
2018-11-29T06:19:37.648Z,13.08
2018-11-29T06:22:05.920Z,10.60
2018-11-29T06:24:34.112Z,11.75
2018-11-29T06:27:02.349Z,9.85
2018-11-29T06:29:31.665Z,12.40
2018-11-29T06:32:01.263Z,12.37
2018-11-29T06:34:29.539Z,11.53
2018-11-29T06:36:57.759Z,11.90
2018-11-29T06:39:26.002Z,12.28
2018-11-29T06:41:54.204Z,12.65
2018-11-29T06:44:22.537Z,13.70
2018-11-29T06:46:50.729Z,13.30
2018-11-29T06:49:19.011Z,14.38
2018-11-29T06:51:47.227Z,14.35
2018-11-29T06:54:15.423Z,14.63
2018-11-29T06:56:43.697Z,13.32
2018-11-29T06:59:11.929Z,14.05
2018-11-29T07:01:40.279Z,14.45
2018-11-29T07:04:08.486Z,14.28
2018-11-29T07:06:36.703Z,13.88
2018-11-29T07:09:08.551Z,13.50
2018-11-29T07:11:37.148Z,14.50
2018-11-29T07:14:05.503Z,12.05
2018-11-29T07:16:33.692Z,14.00
2018-11-29T07:19:01.932Z,11.80
2018-11-29T07:21:41.191Z,12.88
2018-11-29T07:24:09.419Z,12.25
2018-11-29T07:26:37.639Z,13.00
2018-11-29T07:29:05.943Z,14.07
2018-11-29T07:31:34.188Z,13.03
2018-11-29T07:34:02.431Z,12.15
2018-11-29T07:36:30.681Z,12.98
2018-11-29T07:38:58.912Z,13.35
2018-11-29T07:41:27.127Z,13.15
2018-11-29T07:43:55.407Z,13.75
2018-11-29T07:46:25.796Z,13.83
2018-11-29T07:48:54.822Z,13.08
2018-11-29T07:51:23.418Z,13.30
2018-11-29T07:53:51.641Z,15.30
2018-11-29T07:56:19.867Z,13.80
2018-11-29T07:58:51.778Z,13.83
2018-11-29T08:01:17.320Z,14.38
2018-11-29T08:03:45.564Z,15.03
2018-11-29T08:06:13.905Z,13.22
2018-11-29T08:08:42.091Z,14.30
2018-11-29T08:11:10.360Z,14.90
2018-11-29T08:13:38.564Z,15.85
2018-11-29T08:16:07.144Z,13.60
2018-11-29T08:18:35.396Z,14.25
2018-11-29T08:21:03.684Z,14.98
2018-11-29T08:23:31.895Z,12.70
2018-11-29T08:26:00.149Z,13.38
2018-11-29T08:28:28.344Z,14.35
2018-11-29T08:30:56.634Z,12.70
2018-11-29T08:33:24.872Z,15.08
2018-11-29T08:35:53.116Z,12.60
2018-11-29T08:38:21.348Z,12.88
2018-11-29T08:40:49.564Z,13.45
2018-11-29T08:43:17.865Z,13.88
2018-11-29T08:45:46.068Z,14.18
2018-11-29T08:48:14.287Z,13.62
2018-11-29T08:50:42.586Z,14.28
2018-11-29T08:53:10.988Z,12.65
2018-11-29T08:55:39.180Z,14.00
2018-11-29T08:58:07.476Z,13.15
2018-11-29T09:00:35.695Z,15.25
2018-11-29T09:03:04.012Z,15.48
2018-11-29T09:05:34.152Z,14.05
2018-11-29T09:08:00.552Z,13.90
2018-11-29T09:10:31.784Z,15.03
2018-11-29T09:12:58.959Z,14.45
2018-11-29T09:15:27.221Z,14.75
2018-11-29T09:17:55.489Z,14.40
2018-11-29T09:20:23.683Z,13.55
2018-11-29T09:22:51.919Z,12.78
2018-11-29T09:25:21.140Z,13.98
2018-11-29T09:27:49.423Z,12.98
2018-11-29T09:30:19.541Z,13.53
2018-11-29T09:32:48.760Z,14.38
2018-11-29T09:35:17.063Z,13.78
2018-11-29T09:37:45.393Z,12.68
2018-11-29T09:40:14.900Z,12.63
2018-11-29T09:42:43.463Z,14.25
2018-11-29T09:45:16.606Z,12.45
2018-11-29T09:47:45.971Z,12.33
2018-11-29T09:50:15.076Z,12.63
2018-11-29T09:52:43.339Z,13.05
2018-11-29T09:55:12.784Z,13.62
2018-11-29T09:57:41.147Z,13.05
2018-11-29T10:00:12.364Z,12.55
2018-11-29T10:02:41.384Z,11.97
2018-11-29T10:05:10.769Z,12.45
2018-11-29T10:07:39.345Z,13.28
2018-11-29T10:10:09.692Z,11.18
2018-11-29T10:12:38.455Z,12.15
2018-11-29T10:15:09.046Z,11.43
2018-11-29T10:17:37.315Z,11.15
2018-11-29T10:20:11.099Z,10.48
2018-11-29T10:22:39.947Z,11.05
2018-11-29T10:25:10.884Z,10.43
2018-11-29T10:27:39.579Z,10.15
2018-11-29T10:30:18.657Z,11.80
2018-11-29T10:32:47.316Z,10.80
2018-11-29T10:35:15.817Z,10.25
2018-11-29T10:37:44.367Z,11.12
2018-11-29T10:40:12.990Z,9.70
2018-11-29T10:42:41.649Z,11.78
2018-11-29T10:45:13.330Z,10.23
2018-11-29T10:47:42.572Z,10.50
2018-11-29T10:50:13.182Z,9.70
2018-11-29T10:52:41.424Z,10.20
2018-11-29T10:55:12.096Z,10.65
2018-11-29T10:57:40.892Z,10.13
2018-11-29T11:00:30.565Z,10.85
2018-11-29T11:03:08.832Z,10.40
2018-11-29T11:05:37.447Z,12.07
2018-11-29T11:08:08.585Z,10.53
2018-11-29T11:10:35.367Z,10.78
2018-11-29T11:13:03.659Z,10.60
2018-11-29T11:15:31.875Z,11.85
2018-11-29T11:18:00.107Z,10.60
2018-11-29T11:20:28.355Z,10.93
2018-11-29T11:22:56.596Z,10.45
2018-11-29T11:25:24.912Z,9.98
2018-11-29T11:27:53.188Z,11.45
2018-11-29T11:30:21.911Z,10.93
2018-11-29T11:32:51.200Z,10.35
2018-11-29T11:35:19.495Z,11.90
2018-11-29T11:37:47.893Z,12.03
2018-11-29T11:40:16.789Z,11.55
2018-11-29T11:42:45.919Z,11.43
2018-11-29T11:45:18.187Z,10.65
2018-11-29T11:47:46.647Z,10.90
2018-11-29T11:50:15.977Z,11.80
2018-11-29T11:52:44.247Z,10.85
2018-11-29T11:55:18.704Z,11.53
2018-11-29T11:57:41.659Z,10.75
2018-11-29T12:00:13.080Z,10.32
2018-11-29T12:02:41.351Z,10.95
2018-11-29T12:05:10.393Z,11.43
2018-11-29T12:07:38.700Z,11.38
2018-11-29T12:10:08.897Z,10.38
2018-11-29T12:12:37.153Z,10.28
2018-11-29T12:15:07.520Z,12.85
2018-11-29T12:17:35.751Z,12.03
2018-11-29T12:20:04.628Z,11.10
2018-11-29T12:22:32.849Z,10.68
2018-11-29T12:25:01.040Z,11.12
2018-11-29T12:27:29.259Z,12.63
2018-11-29T12:29:57.478Z,11.40
2018-11-29T12:32:25.717Z,11.63
2018-11-29T12:34:53.910Z,12.03
2018-11-29T12:37:22.131Z,12.73
2018-11-29T12:39:50.323Z,12.20
2018-11-29T12:42:18.596Z,12.60
2018-11-29T12:44:46.852Z,12.30
2018-11-29T12:47:15.112Z,10.85
2018-11-29T12:49:43.283Z,12.78
2018-11-29T12:52:11.566Z,12.13
2018-11-29T12:54:39.831Z,12.68
2018-11-29T12:57:08.056Z,11.10
2018-11-29T12:59:36.244Z,12.15
2018-11-29T13:02:04.495Z,12.40
2018-11-29T13:04:32.696Z,12.90
2018-11-29T13:07:00.931Z,12.05
2018-11-29T13:09:29.179Z,12.10
2018-11-29T13:11:57.384Z,11.83
2018-11-29T13:14:25.667Z,15.28
2018-11-29T13:16:53.956Z,11.97
2018-11-29T13:19:22.208Z,15.23
2018-11-29T13:21:50.601Z,13.35
2018-11-29T13:24:18.844Z,12.15
2018-11-29T13:26:47.095Z,13.32
2018-11-29T13:29:15.320Z,11.80
2018-11-29T13:31:43.565Z,12.43
2018-11-29T13:34:11.795Z,12.55
2018-11-29T13:36:40.017Z,12.18
2018-11-29T13:39:09.506Z,13.00
2018-11-29T13:41:37.759Z,12.63
2018-11-29T13:44:05.969Z,11.53
2018-11-29T13:46:34.259Z,13.50
2018-11-29T13:49:02.515Z,12.07
2018-11-29T13:51:30.756Z,13.05
2018-11-29T13:53:59.083Z,13.13
2018-11-29T13:56:27.313Z,12.58
2018-11-29T13:58:55.595Z,13.83
2018-11-29T14:01:23.780Z,13.50
2018-11-29T14:03:52.008Z,14.55
2018-11-29T14:06:20.225Z,13.40
2018-11-29T14:08:48.456Z,13.72
2018-11-29T14:11:16.647Z,12.30
2018-11-29T14:13:44.880Z,13.85
2018-11-29T14:16:13.096Z,14.15
2018-11-29T14:18:41.332Z,14.47
2018-11-29T14:21:09.554Z,14.05
2018-11-29T14:23:37.749Z,15.10
2018-11-29T14:26:06.084Z,14.58
2018-11-29T14:28:34.328Z,15.13
2018-11-29T14:31:02.564Z,14.13
2018-11-29T14:33:30.761Z,14.23
2018-11-29T14:35:59.028Z,14.95
2018-11-29T14:38:27.232Z,13.80
2018-11-29T14:40:55.459Z,14.78
2018-11-29T14:43:23.727Z,13.60
2018-11-29T14:45:51.940Z,13.95
2018-11-29T14:48:20.191Z,15.40
2018-11-29T14:50:48.411Z,14.83
2018-11-29T14:53:16.588Z,14.00
2018-11-29T14:55:44.862Z,15.00
2018-11-29T14:58:13.811Z,40.10
2018-11-29T15:00:42.132Z,27.40
2018-11-29T15:03:14.488Z,17.77
2018-11-29T15:05:43.255Z,15.98
2018-11-29T15:08:11.448Z,15.88
2018-11-29T15:10:39.704Z,15.23
2018-11-29T15:13:09.140Z,15.70
2018-11-29T15:15:37.510Z,14.50
2018-11-29T15:18:06.496Z,17.05
2018-11-29T15:20:42.730Z,15.30
2018-11-29T15:23:12.160Z,14.80
2018-11-29T15:25:40.417Z,17.60
2018-11-29T15:28:08.644Z,18.23
2018-11-29T15:30:36.871Z,15.28
2018-11-29T15:33:05.555Z,16.62
2018-11-29T15:35:33.784Z,19.67
2018-11-29T15:38:02.309Z,18.25
2018-11-29T15:40:30.552Z,17.73
2018-11-29T15:42:58.817Z,16.35
2018-11-29T15:45:27.472Z,15.32
2018-11-29T15:47:55.728Z,16.52
2018-11-29T15:50:23.968Z,15.85
2018-11-29T15:52:52.180Z,16.00
2018-11-29T15:55:21.283Z,15.70
2018-11-29T15:57:50.605Z,16.37
2018-11-29T16:00:28.147Z,15.50
2018-11-29T16:02:59.498Z,16.60
2018-11-29T16:05:27.796Z,16.97
2018-11-29T16:07:56.044Z,14.73
2018-11-29T16:10:25.277Z,14.20
2018-11-29T16:12:53.552Z,16.25
2018-11-29T16:15:22.020Z,17.25
2018-11-29T16:17:51.216Z,15.08
2018-11-29T16:20:22.629Z,15.10
2018-11-29T16:22:50.895Z,17.10
2018-11-29T16:25:19.204Z,15.32
2018-11-29T16:27:47.515Z,14.78
2018-11-29T16:30:26.704Z,16.30
2018-11-29T16:32:55.868Z,15.80
2018-11-29T16:35:25.408Z,14.78
2018-11-29T16:37:53.624Z,15.30
2018-11-29T16:40:21.894Z,15.65
2018-11-29T16:42:50.156Z,15.03
2018-11-29T16:45:18.375Z,16.48
2018-11-29T16:47:46.623Z,16.17
2018-11-29T16:50:15.848Z,15.65
2018-11-29T16:52:44.048Z,16.10
2018-11-29T16:55:12.678Z,15.48
2018-11-29T16:57:43.577Z,16.07
2018-11-29T17:00:15.420Z,14.70
2018-11-29T17:02:43.795Z,15.55
2018-11-29T17:05:13.481Z,16.35
2018-11-29T17:07:41.736Z,14.70
2018-11-29T17:10:12.271Z,15.85
2018-11-29T17:12:40.940Z,15.98
2018-11-29T17:15:12.808Z,16.25
2018-11-29T17:17:41.035Z,14.95
2018-11-29T17:20:10.843Z,14.85
2018-11-29T17:22:39.088Z,15.72
2018-11-29T17:25:08.711Z,15.40
2018-11-29T17:27:36.900Z,16.70
2018-11-29T17:30:11.520Z,15.98
2018-11-29T17:32:42.001Z,16.35
2018-11-29T17:35:10.356Z,16.17
2018-11-29T17:37:38.584Z,15.58
2018-11-29T17:40:10.476Z,16.48
2018-11-29T17:42:38.768Z,17.02
2018-11-29T17:45:10.567Z,16.32
2018-11-29T17:47:38.803Z,18.77
2018-11-29T17:50:11.163Z,15.75
2018-11-29T17:52:39.415Z,15.72
2018-11-29T17:55:07.779Z,16.95
2018-11-29T17:57:36.048Z,19.48
2018-11-29T18:00:07.919Z,17.77
2018-11-29T18:02:36.191Z,17.67
2018-11-29T18:05:04.888Z,19.20
2018-11-29T18:07:33.188Z,18.40
2018-11-29T18:10:01.589Z,18.30
2018-11-29T18:12:29.852Z,18.60
2018-11-29T18:14:58.607Z,15.72
2018-11-29T18:17:26.874Z,20.52
2018-11-29T18:19:55.124Z,20.90
2018-11-29T18:22:23.348Z,17.27
2018-11-29T18:24:51.610Z,16.62
2018-11-29T18:27:19.856Z,17.90
2018-11-29T18:29:48.072Z,17.52
2018-11-29T18:32:16.322Z,17.70
2018-11-29T18:34:45.025Z,18.50
2018-11-29T18:37:13.597Z,16.23
2018-11-29T18:39:41.834Z,17.90
2018-11-29T18:42:10.302Z,17.10
2018-11-29T18:44:38.900Z,18.82
2018-11-29T18:47:07.163Z,19.15
2018-11-29T18:49:35.415Z,19.07
2018-11-29T18:52:03.971Z,17.95
2018-11-29T18:54:32.200Z,16.52
2018-11-29T18:57:00.438Z,18.90
2018-11-29T18:59:28.712Z,17.45
2018-11-29T19:01:56.962Z,17.85
2018-11-29T19:04:25.192Z,19.10
2018-11-29T19:06:53.439Z,19.30
2018-11-29T19:09:21.688Z,17.50
2018-11-29T19:11:49.959Z,17.80
2018-11-29T19:14:18.171Z,18.50
2018-11-29T19:16:46.449Z,19.55
2018-11-29T19:19:14.749Z,17.48
2018-11-29T19:21:42.987Z,18.50
2018-11-29T19:24:11.236Z,18.85
2018-11-29T19:26:39.496Z,19.27
2018-11-29T19:29:07.717Z,19.37
2018-11-29T19:31:36.023Z,18.60
2018-11-29T19:34:04.400Z,18.20
2018-11-29T19:36:32.632Z,16.50
2018-11-29T19:39:01.226Z,16.62
2018-11-29T19:41:36.103Z,18.10
2018-11-29T19:44:04.626Z,18.12
2018-11-29T19:46:32.871Z,15.88
2018-11-29T19:49:01.112Z,18.17
2018-11-29T19:51:29.368Z,17.60
2018-11-29T19:53:58.324Z,17.02
2018-11-29T19:56:26.560Z,18.35
2018-11-29T19:58:54.792Z,18.35
2018-11-29T20:01:23.319Z,17.55
2018-11-29T20:03:51.639Z,19.02
2018-11-29T20:06:19.977Z,19.30
2018-11-29T20:08:48.857Z,19.50
2018-11-29T20:11:17.080Z,19.55
2018-11-29T20:13:45.332Z,19.57
2018-11-29T20:16:13.620Z,19.48
2018-11-29T20:18:41.999Z,18.07
2018-11-29T20:21:10.273Z,18.17
2018-11-29T20:23:38.839Z,16.55
2018-11-29T20:26:07.096Z,16.45
2018-11-29T20:28:35.316Z,19.48
2018-11-29T20:31:03.543Z,18.73
2018-11-29T20:33:31.735Z,16.37
2018-11-29T20:36:00.125Z,19.00
2018-11-29T20:38:28.375Z,16.77
2018-11-29T20:40:56.560Z,16.10
2018-11-29T20:43:24.852Z,19.10
2018-11-29T20:45:54.272Z,17.92
2018-11-29T20:48:24.739Z,16.93
2018-11-29T20:50:53.941Z,19.10
2018-11-29T20:53:24.099Z,17.70
2018-11-29T20:55:52.319Z,18.67
2018-11-29T20:58:21.170Z,16.70
2018-11-29T21:00:49.463Z,18.62
2018-11-29T21:03:17.763Z,17.48
2018-11-29T21:05:46.008Z,17.32
2018-11-29T21:08:14.310Z,18.00
2018-11-29T21:10:43.541Z,15.55
2018-11-29T21:13:11.899Z,18.27
2018-11-29T21:15:41.514Z,18.57
2018-11-29T21:18:12.008Z,17.67
2018-11-29T21:20:41.087Z,16.10
2018-11-29T21:23:10.727Z,18.87
2018-11-29T21:25:38.927Z,18.60
2018-11-29T21:28:07.439Z,17.57
2018-11-29T21:30:35.899Z,17.65
2018-11-29T21:33:04.826Z,18.07
2018-11-29T21:35:33.148Z,18.20
2018-11-29T21:38:08.601Z,17.92
2018-11-29T21:40:36.819Z,18.30
2018-11-29T21:43:05.063Z,19.10
2018-11-29T21:45:34.266Z,17.62
2018-11-29T21:48:02.572Z,18.67
2018-11-29T21:50:30.815Z,21.73
2018-11-29T21:52:59.182Z,18.90
2018-11-29T21:55:27.447Z,17.07
2018-11-29T21:57:55.679Z,17.95
2018-11-29T22:00:23.898Z,19.90
2018-11-29T22:02:55.083Z,16.25
2018-11-29T22:05:23.335Z,18.90
2018-11-29T22:07:51.625Z,17.12
2018-11-29T22:10:19.959Z,18.07
2018-11-29T22:12:48.592Z,18.40
2018-11-29T22:15:17.052Z,17.50
2018-11-29T22:18:30.693Z,18.17
2018-11-29T22:21:02.292Z,17.45
2018-11-29T22:23:31.432Z,18.07
2018-11-29T22:26:00.917Z,17.70
2018-11-29T22:28:29.658Z,18.35
2018-11-29T22:30:57.914Z,19.65
2018-11-29T22:33:26.169Z,19.65
2018-11-29T22:35:54.376Z,19.52
2018-11-29T22:38:22.608Z,19.80
2018-11-29T22:40:50.961Z,18.90
2018-11-29T22:43:19.195Z,19.65
2018-11-29T22:45:47.440Z,19.77
2018-11-29T22:48:15.670Z,20.68
2018-11-29T22:50:43.863Z,18.10
2018-11-29T22:53:12.099Z,17.45
2018-11-29T22:55:40.372Z,17.12
2018-11-29T22:58:08.592Z,18.20
2018-11-29T23:00:38.935Z,18.75
2018-11-29T23:03:07.356Z,17.52
2018-11-29T23:05:35.553Z,19.05
2018-11-29T23:08:03.975Z,21.07
2018-11-29T23:10:32.236Z,19.82
2018-11-29T23:13:00.455Z,18.80
2018-11-29T23:15:28.711Z,20.00
2018-11-29T23:17:56.960Z,19.87
2018-11-29T23:20:25.212Z,19.80
2018-11-29T23:22:53.456Z,20.10
2018-11-29T23:25:21.687Z,21.00
2018-11-29T23:27:49.872Z,19.00
2018-11-29T23:30:18.294Z,20.05
2018-11-29T23:32:46.599Z,20.35
2018-11-29T23:35:22.292Z,21.00
2018-11-29T23:37:57.121Z,18.20
2018-11-29T23:40:25.353Z,19.30
2018-11-29T23:42:53.584Z,20.70
2018-11-29T23:45:21.779Z,19.50
2018-11-29T23:47:49.989Z,19.77
2018-11-29T23:50:18.681Z,20.75
2018-11-29T23:52:47.041Z,19.60
2018-11-29T23:55:19.081Z,20.25
2018-11-29T23:57:47.341Z,20.25
